Nesbitt, Texas
Current Conditions -  °F | °C
As of 6:15 AM on Sunday 23 Nov 2014 (Local Time) from KASL Reporting Station
Overcast Overcast  
Wind Chill: 60°   Ceiling: 1200
Heat Index: 60°   Visibility: 7mi
Dew Point: 58°   Wind: 3mph
Humidity: 92%   Direction: 160°SSE
Pressure: 29.62"   Gusts: NA
Location:  32.4675°N, 94.3321°W
Report Text: KASL 231215Z AUTO 16003KT 7SM SCT006 BKN012 OVC017 16/14 A2962 RMK AO1 P0002 T01550142
Loading
Personal Weather Stations






























Interactive Weather Map New forecast layout! Learn more

10-Day Weather Forecast

Advertisements
Track Severe Weather on mobile